This is the latest recevied weather packets stored in our database for station/object N0KTA-2. If no packets are shown the sender has not sent any weather packets the latest 10 day(s).
| Time | Temp. | Humidity | Pressure | Rain* | Wind** | Luminosity | Snow |
|---|---|---|---|---|---|---|---|
| 1777733965 | 13.33° C | 49% | 1019.5 hPa | 0 mm | - | - | - |
| 1777733367 | 13.33° C | 50% | 1019.3 hPa | 0 mm | - | - | - |
| 1777732765 | 12.78° C | 53% | 1019.3 hPa | 0 mm | - | - | - |
| 1777732165 | 12.22° C | 56% | 1019.4 hPa | 0 mm | - | - | - |
| 1777731565 | 11.67° C | 58% | 1019.4 hPa | 0 mm | - | - | - |
| 1777730966 | 11.67° C | 57% | 1019.4 hPa | 0 mm | - | - | - |
| 1777730365 | 11.11° C | 59% | 1019.3 hPa | 0 mm | - | - | - |
| 1777729765 | 11.11° C | 59% | 1019.2 hPa | 0 mm | - | - | - |
| 1777729166 | 10.56° C | 61% | 1019.2 hPa | 0 mm | - | - | - |
| 1777728565 | 10.56° C | 62% | 1019.1 hPa | 0 mm | - | - | - |
| 1777727965 | 10° C | 65% | 1019 hPa | 0 mm | - | - | - |
| 1777727365 | 9.44° C | 69% | 1019 hPa | 0 mm | - | - | - |
| 1777726766 | 8.33° C | 73% | 1019 hPa | 0 mm | - | - | - |
| 1777726165 | 7.78° C | 75% | 1018.9 hPa | 0 mm | - | - | - |
| 1777725566 | 7.78° C | 78% | 1018.7 hPa | 0 mm | - | - | - |
| 1777724966 | 7.22° C | 79% | 1018.6 hPa | 0 mm | - | - | - |
| 1777724365 | 7.22° C | 80% | 1018.6 hPa | 0 mm | - | - | - |
| 1777723764 | 7.22° C | 81% | 1018.5 hPa | 0 mm | - | - | - |
| 1777723166 | 7.22° C | 80% | 1018 hPa | 0 mm | - | - | - |
| 1777722565 | 7.22° C | 80% | 1017.9 hPa | 0 mm | - | - | - |
| 1777721965 | 7.22° C | 82% | 1017.8 hPa | 0 mm | - | - | - |
| 1777721366 | 7.22° C | 83% | 1017.8 hPa | 0 mm | - | - | - |
| 1777720765 | 7.22° C | 84% | 1017.6 hPa | 0 mm | - | - | - |
| 1777720165 | 7.22° C | 85% | 1017.4 hPa | 0 mm | - | - | - |
| 1777719566 | 7.22° C | 86% | 1017.2 hPa | 0 mm | - | - | - |
* Rain latest hour (hover to see other rain measurements)
** Current wind speed in m/s (hover to see current wind gust speed)